sensor_id;sensor_type;location;lat;lon;timestamp;P1;durP1;ratioP1;P2;durP2;ratioP2
49101;SDS011;34913;47.520;19.186;2023-05-16T00:01:53;11.27;;;9.07;;
49101;SDS011;34913;47.520;19.186;2023-05-16T00:04:19;12.32;;;8.85;;
49101;SDS011;34913;47.520;19.186;2023-05-16T00:06:45;11.75;;;9.25;;
49101;SDS011;34913;47.520;19.186;2023-05-16T00:09:11;11.02;;;9.20;;
49101;SDS011;34913;47.520;19.186;2023-05-16T00:11:36;12.60;;;9.40;;
49101;SDS011;34913;47.520;19.186;2023-05-16T00:14:02;13.68;;;10.02;;
49101;SDS011;34913;47.520;19.186;2023-05-16T00:16:27;14.50;;;11.07;;
49101;SDS011;34913;47.520;19.186;2023-05-16T00:18:54;13.88;;;11.15;;
49101;SDS011;34913;47.520;19.186;2023-05-16T00:21:21;14.43;;;11.35;;
49101;SDS011;34913;47.520;19.186;2023-05-16T00:23:47;14.52;;;10.75;;
49101;SDS011;34913;47.520;19.186;2023-05-16T00:26:12;14.15;;;10.93;;
49101;SDS011;34913;47.520;19.186;2023-05-16T00:28:38;12.98;;;10.90;;
49101;SDS011;34913;47.520;19.186;2023-05-16T00:31:03;14.75;;;10.90;;
49101;SDS011;34913;47.520;19.186;2023-05-16T00:33:29;14.80;;;11.07;;
49101;SDS011;34913;47.520;19.186;2023-05-16T00:35:55;12.55;;;10.82;;
49101;SDS011;34913;47.520;19.186;2023-05-16T00:38:20;12.02;;;10.73;;
49101;SDS011;34913;47.520;19.186;2023-05-16T00:40:45;12.63;;;10.75;;
49101;SDS011;34913;47.520;19.186;2023-05-16T00:43:11;12.48;;;10.75;;
49101;SDS011;34913;47.520;19.186;2023-05-16T00:45:37;12.73;;;10.43;;
49101;SDS011;34913;47.520;19.186;2023-05-16T00:48:02;12.45;;;10.88;;
49101;SDS011;34913;47.520;19.186;2023-05-16T00:50:28;12.60;;;10.85;;
49101;SDS011;34913;47.520;19.186;2023-05-16T00:52:53;11.52;;;10.30;;
49101;SDS011;34913;47.520;19.186;2023-05-16T00:55:19;12.63;;;10.27;;
49101;SDS011;34913;47.520;19.186;2023-05-16T00:57:45;13.68;;;10.55;;
49101;SDS011;34913;47.520;19.186;2023-05-16T01:00:10;12.40;;;10.85;;
49101;SDS011;34913;47.520;19.186;2023-05-16T01:02:38;11.75;;;10.30;;
49101;SDS011;34913;47.520;19.186;2023-05-16T01:05:04;12.02;;;9.88;;
49101;SDS011;34913;47.520;19.186;2023-05-16T01:07:31;10.70;;;9.60;;
49101;SDS011;34913;47.520;19.186;2023-05-16T01:09:56;10.43;;;9.32;;
49101;SDS011;34913;47.520;19.186;2023-05-16T01:15:04;10.57;;;9.20;;
49101;SDS011;34913;47.520;19.186;2023-05-16T01:17:37;11.27;;;9.88;;
49101;SDS011;34913;47.520;19.186;2023-05-16T01:23:19;10.52;;;9.13;;
49101;SDS011;34913;47.520;19.186;2023-05-16T01:29:02;10.32;;;9.15;;
49101;SDS011;34913;47.520;19.186;2023-05-16T01:31:27;10.73;;;9.02;;
49101;SDS011;34913;47.520;19.186;2023-05-16T01:33:53;11.15;;;9.07;;
49101;SDS011;34913;47.520;19.186;2023-05-16T01:41:42;9.55;;;8.55;;
49101;SDS011;34913;47.520;19.186;2023-05-16T01:44:21;10.07;;;8.57;;
49101;SDS011;34913;47.520;19.186;2023-05-16T01:46:49;10.38;;;8.27;;
49101;SDS011;34913;47.520;19.186;2023-05-16T01:52:52;10.15;;;7.50;;
49101;SDS011;34913;47.520;19.186;2023-05-16T01:58:08;8.40;;;7.22;;
49101;SDS011;34913;47.520;19.186;2023-05-16T02:00:35;9.88;;;7.10;;
49101;SDS011;34913;47.520;19.186;2023-05-16T02:03:00;7.95;;;6.85;;
49101;SDS011;34913;47.520;19.186;2023-05-16T02:05:26;7.97;;;7.18;;
49101;SDS011;34913;47.520;19.186;2023-05-16T02:07:52;10.30;;;6.82;;
49101;SDS011;34913;47.520;19.186;2023-05-16T02:10:17;11.43;;;6.88;;
49101;SDS011;34913;47.520;19.186;2023-05-16T02:12:44;11.02;;;6.45;;
49101;SDS011;34913;47.520;19.186;2023-05-16T02:15:10;7.13;;;5.55;;
49101;SDS011;34913;47.520;19.186;2023-05-16T02:17:35;8.32;;;6.30;;
49101;SDS011;34913;47.520;19.186;2023-05-16T02:20:01;7.00;;;6.22;;
49101;SDS011;34913;47.520;19.186;2023-05-16T02:22:31;7.68;;;5.63;;
49101;SDS011;34913;47.520;19.186;2023-05-16T02:24:57;6.65;;;5.82;;
49101;SDS011;34913;47.520;19.186;2023-05-16T02:27:24;9.35;;;5.80;;
49101;SDS011;34913;47.520;19.186;2023-05-16T02:29:49;6.18;;;5.63;;
49101;SDS011;34913;47.520;19.186;2023-05-16T02:32:14;6.38;;;5.78;;
49101;SDS011;34913;47.520;19.186;2023-05-16T02:34:40;6.03;;;5.47;;
49101;SDS011;34913;47.520;19.186;2023-05-16T02:37:06;7.25;;;5.25;;
49101;SDS011;34913;47.520;19.186;2023-05-16T02:39:32;6.43;;;5.20;;
49101;SDS011;34913;47.520;19.186;2023-05-16T02:41:57;7.97;;;5.10;;
49101;SDS011;34913;47.520;19.186;2023-05-16T02:44:23;6.05;;;5.43;;
49101;SDS011;34913;47.520;19.186;2023-05-16T02:46:48;7.80;;;5.25;;
49101;SDS011;34913;47.520;19.186;2023-05-16T02:49:13;5.88;;;4.70;;
49101;SDS011;34913;47.520;19.186;2023-05-16T02:51:39;4.65;;;4.25;;
49101;SDS011;34913;47.520;19.186;2023-05-16T02:54:05;4.95;;;4.35;;
49101;SDS011;34913;47.520;19.186;2023-05-16T02:56:33;9.07;;;4.40;;
49101;SDS011;34913;47.520;19.186;2023-05-16T02:58:59;4.72;;;4.28;;
49101;SDS011;34913;47.520;19.186;2023-05-16T03:01:25;6.47;;;5.22;;
49101;SDS011;34913;47.520;19.186;2023-05-16T03:03:50;5.80;;;4.30;;
49101;SDS011;34913;47.520;19.186;2023-05-16T03:06:16;5.03;;;4.53;;
49101;SDS011;34913;47.520;19.186;2023-05-16T03:08:41;4.80;;;4.40;;
49101;SDS011;34913;47.520;19.186;2023-05-16T03:11:07;6.35;;;4.20;;
49101;SDS011;34913;47.520;19.186;2023-05-16T03:13:32;5.18;;;4.68;;
49101;SDS011;34913;47.520;19.186;2023-05-16T03:15:58;5.32;;;4.80;;
49101;SDS011;34913;47.520;19.186;2023-05-16T03:18:23;7.25;;;4.35;;
49101;SDS011;34913;47.520;19.186;2023-05-16T03:20:49;5.60;;;4.38;;
49101;SDS011;34913;47.520;19.186;2023-05-16T03:23:16;3.95;;;3.55;;
49101;SDS011;34913;47.520;19.186;2023-05-16T03:25:43;4.28;;;3.88;;
49101;SDS011;34913;47.520;19.186;2023-05-16T03:28:10;5.63;;;3.75;;
49101;SDS011;34913;47.520;19.186;2023-05-16T03:30:36;3.72;;;3.42;;
49101;SDS011;34913;47.520;19.186;2023-05-16T03:33:02;4.55;;;3.80;;
49101;SDS011;34913;47.520;19.186;2023-05-16T03:35:28;5.90;;;3.53;;
49101;SDS011;34913;47.520;19.186;2023-05-16T03:37:57;5.38;;;3.60;;
49101;SDS011;34913;47.520;19.186;2023-05-16T03:40:22;4.10;;;3.65;;
49101;SDS011;34913;47.520;19.186;2023-05-16T03:42:48;4.20;;;3.70;;
49101;SDS011;34913;47.520;19.186;2023-05-16T03:45:14;4.50;;;4.10;;
49101;SDS011;34913;47.520;19.186;2023-05-16T03:47:39;6.53;;;4.18;;
49101;SDS011;34913;47.520;19.186;2023-05-16T03:50:05;5.20;;;4.10;;
49101;SDS011;34913;47.520;19.186;2023-05-16T03:52:32;4.88;;;4.18;;
49101;SDS011;34913;47.520;19.186;2023-05-16T03:54:58;4.78;;;4.28;;
49101;SDS011;34913;47.520;19.186;2023-05-16T03:57:23;4.53;;;4.13;;
49101;SDS011;34913;47.520;19.186;2023-05-16T03:59:48;7.28;;;3.97;;
49101;SDS011;34913;47.520;19.186;2023-05-16T04:02:14;6.43;;;3.92;;
49101;SDS011;34913;47.520;19.186;2023-05-16T04:04:39;4.38;;;3.97;;
49101;SDS011;34913;47.520;19.186;2023-05-16T04:07:05;5.65;;;3.80;;
49101;SDS011;34913;47.520;19.186;2023-05-16T04:09:30;4.78;;;3.70;;
49101;SDS011;34913;47.520;19.186;2023-05-16T04:11:56;5.25;;;3.92;;
49101;SDS011;34913;47.520;19.186;2023-05-16T04:14:24;5.40;;;3.80;;
49101;SDS011;34913;47.520;19.186;2023-05-16T04:16:49;4.35;;;3.95;;
49101;SDS011;34913;47.520;19.186;2023-05-16T04:19:15;3.72;;;3.33;;
49101;SDS011;34913;47.520;19.186;2023-05-16T04:21:41;3.85;;;3.53;;
49101;SDS011;34913;47.520;19.186;2023-05-16T04:24:06;4.00;;;3.20;;
49101;SDS011;34913;47.520;19.186;2023-05-16T04:26:32;3.47;;;3.08;;
49101;SDS011;34913;47.520;19.186;2023-05-16T04:28:58;3.25;;;2.92;;
49101;SDS011;34913;47.520;19.186;2023-05-16T04:31:26;3.17;;;2.88;;
49101;SDS011;34913;47.520;19.186;2023-05-16T04:33:52;3.30;;;3.00;;
49101;SDS011;34913;47.520;19.186;2023-05-16T04:36:18;3.63;;;3.00;;
49101;SDS011;34913;47.520;19.186;2023-05-16T04:38:43;4.15;;;3.03;;
49101;SDS011;34913;47.520;19.186;2023-05-16T04:41:11;3.45;;;2.92;;
49101;SDS011;34913;47.520;19.186;2023-05-16T04:43:37;3.40;;;3.10;;
49101;SDS011;34913;47.520;19.186;2023-05-16T04:46:03;3.17;;;2.88;;
49101;SDS011;34913;47.520;19.186;2023-05-16T04:48:28;3.75;;;3.20;;
49101;SDS011;34913;47.520;19.186;2023-05-16T04:50:54;3.65;;;3.35;;
49101;SDS011;34913;47.520;19.186;2023-05-16T04:53:20;3.70;;;3.20;;
49101;SDS011;34913;47.520;19.186;2023-05-16T04:55:45;4.35;;;3.20;;
49101;SDS011;34913;47.520;19.186;2023-05-16T04:58:11;3.53;;;3.10;;
49101;SDS011;34913;47.520;19.186;2023-05-16T05:00:37;3.55;;;3.25;;
49101;SDS011;34913;47.520;19.186;2023-05-16T05:03:03;3.70;;;3.30;;
49101;SDS011;34913;47.520;19.186;2023-05-16T05:05:29;3.70;;;3.40;;
49101;SDS011;34913;47.520;19.186;2023-05-16T05:07:54;4.40;;;3.42;;
49101;SDS011;34913;47.520;19.186;2023-05-16T05:10:19;3.95;;;3.55;;
49101;SDS011;34913;47.520;19.186;2023-05-16T05:12:45;4.95;;;3.25;;
49101;SDS011;34913;47.520;19.186;2023-05-16T05:15:10;4.10;;;3.33;;
49101;SDS011;34913;47.520;19.186;2023-05-16T05:17:37;3.55;;;3.25;;
49101;SDS011;34913;47.520;19.186;2023-05-16T05:20:02;4.50;;;3.35;;
49101;SDS011;34913;47.520;19.186;2023-05-16T05:22:31;3.13;;;2.92;;
49101;SDS011;34913;47.520;19.186;2023-05-16T05:24:56;4.35;;;3.10;;
49101;SDS011;34913;47.520;19.186;2023-05-16T05:27:22;6.22;;;3.03;;
49101;SDS011;34913;47.520;19.186;2023-05-16T05:29:47;4.20;;;3.20;;
49101;SDS011;34913;47.520;19.186;2023-05-16T05:32:13;4.88;;;3.28;;
49101;SDS011;34913;47.520;19.186;2023-05-16T05:34:38;4.72;;;3.50;;
49101;SDS011;34913;47.520;19.186;2023-05-16T05:37:03;3.67;;;3.22;;
49101;SDS011;34913;47.520;19.186;2023-05-16T05:39:29;4.43;;;3.38;;
49101;SDS011;34913;47.520;19.186;2023-05-16T05:41:55;4.60;;;3.25;;
49101;SDS011;34913;47.520;19.186;2023-05-16T05:44:20;3.20;;;2.90;;
49101;SDS011;34913;47.520;19.186;2023-05-16T05:46:45;4.55;;;2.97;;
49101;SDS011;34913;47.520;19.186;2023-05-16T05:49:11;3.80;;;3.40;;
49101;SDS011;34913;47.520;19.186;2023-05-16T05:51:37;4.68;;;3.10;;
49101;SDS011;34913;47.520;19.186;2023-05-16T05:54:02;3.42;;;3.13;;
49101;SDS011;34913;47.520;19.186;2023-05-16T05:56:28;4.25;;;3.10;;
49101;SDS011;34913;47.520;19.186;2023-05-16T05:58:53;5.90;;;2.92;;
49101;SDS011;34913;47.520;19.186;2023-05-16T06:01:19;5.57;;;2.90;;
49101;SDS011;34913;47.520;19.186;2023-05-16T06:03:48;3.47;;;3.10;;
49101;SDS011;34913;47.520;19.186;2023-05-16T06:06:13;5.20;;;3.40;;
49101;SDS011;34913;47.520;19.186;2023-05-16T06:08:39;3.50;;;3.20;;
49101;SDS011;34913;47.520;19.186;2023-05-16T06:11:05;3.60;;;3.00;;
49101;SDS011;34913;47.520;19.186;2023-05-16T06:13:31;6.88;;;3.22;;
49101;SDS011;34913;47.520;19.186;2023-05-16T06:15:56;3.83;;;2.92;;
49101;SDS011;34913;47.520;19.186;2023-05-16T06:18:22;4.22;;;3.25;;
49101;SDS011;34913;47.520;19.186;2023-05-16T06:20:47;6.00;;;3.13;;
49101;SDS011;34913;47.520;19.186;2023-05-16T06:23:12;5.40;;;3.55;;
49101;SDS011;34913;47.520;19.186;2023-05-16T06:25:38;6.25;;;3.50;;
49101;SDS011;34913;47.520;19.186;2023-05-16T06:28:03;3.60;;;3.08;;
49101;SDS011;34913;47.520;19.186;2023-05-16T06:30:29;5.18;;;3.42;;
49101;SDS011;34913;47.520;19.186;2023-05-16T06:32:54;5.15;;;3.47;;
49101;SDS011;34913;47.520;19.186;2023-05-16T06:35:20;5.82;;;2.97;;
49101;SDS011;34913;47.520;19.186;2023-05-16T06:37:45;5.38;;;3.80;;
49101;SDS011;34913;47.520;19.186;2023-05-16T06:40:11;4.43;;;3.78;;
49101;SDS011;34913;47.520;19.186;2023-05-16T06:42:37;4.57;;;3.45;;
49101;SDS011;34913;47.520;19.186;2023-05-16T06:45:02;5.20;;;3.80;;
49101;SDS011;34913;47.520;19.186;2023-05-16T06:47:28;4.10;;;3.70;;
49101;SDS011;34913;47.520;19.186;2023-05-16T06:49:53;3.75;;;3.28;;
49101;SDS011;34913;47.520;19.186;2023-05-16T06:52:19;5.95;;;3.88;;
49101;SDS011;34913;47.520;19.186;2023-05-16T06:54:45;5.13;;;3.70;;
49101;SDS011;34913;47.520;19.186;2023-05-16T06:57:10;6.30;;;4.15;;
49101;SDS011;34913;47.520;19.186;2023-05-16T06:59:37;3.45;;;3.15;;
49101;SDS011;34913;47.520;19.186;2023-05-16T07:02:03;5.25;;;4.57;;
49101;SDS011;34913;47.520;19.186;2023-05-16T07:04:28;5.80;;;4.43;;
49101;SDS011;34913;47.520;19.186;2023-05-16T07:06:54;7.15;;;5.20;;
49101;SDS011;34913;47.520;19.186;2023-05-16T07:09:19;10.25;;;5.28;;
49101;SDS011;34913;47.520;19.186;2023-05-16T07:11:45;10.00;;;7.93;;
49101;SDS011;34913;47.520;19.186;2023-05-16T07:14:11;11.30;;;8.55;;
49101;SDS011;34913;47.520;19.186;2023-05-16T07:16:36;10.65;;;8.93;;
49101;SDS011;34913;47.520;19.186;2023-05-16T07:19:02;10.63;;;7.82;;
49101;SDS011;34913;47.520;19.186;2023-05-16T07:21:27;10.23;;;7.45;;
49101;SDS011;34913;47.520;19.186;2023-05-16T07:23:53;9.77;;;7.05;;
49101;SDS011;34913;47.520;19.186;2023-05-16T07:26:18;15.43;;;8.82;;
49101;SDS011;34913;47.520;19.186;2023-05-16T07:28:47;12.60;;;9.13;;
49101;SDS011;34913;47.520;19.186;2023-05-16T07:31:13;13.00;;;7.50;;
49101;SDS011;34913;47.520;19.186;2023-05-16T07:33:38;13.18;;;9.82;;
49101;SDS011;34913;47.520;19.186;2023-05-16T07:36:04;14.35;;;8.82;;
49101;SDS011;34913;47.520;19.186;2023-05-16T07:38:30;14.57;;;9.88;;
49101;SDS011;34913;47.520;19.186;2023-05-16T07:40:55;12.23;;;8.50;;
49101;SDS011;34913;47.520;19.186;2023-05-16T07:43:21;13.20;;;9.77;;
49101;SDS011;34913;47.520;19.186;2023-05-16T07:45:46;12.52;;;8.68;;
49101;SDS011;34913;47.520;19.186;2023-05-16T07:48:12;11.50;;;8.57;;
49101;SDS011;34913;47.520;19.186;2023-05-16T07:50:37;11.88;;;8.80;;
49101;SDS011;34913;47.520;19.186;2023-05-16T07:53:02;11.80;;;9.30;;
49101;SDS011;34913;47.520;19.186;2023-05-16T07:55:28;11.10;;;8.02;;
49101;SDS011;34913;47.520;19.186;2023-05-16T07:57:53;12.30;;;8.68;;
49101;SDS011;34913;47.520;19.186;2023-05-16T08:00:19;13.18;;;9.40;;
49101;SDS011;34913;47.520;19.186;2023-05-16T08:02:45;12.80;;;8.95;;
49101;SDS011;34913;47.520;19.186;2023-05-16T08:05:11;14.73;;;9.13;;
49101;SDS011;34913;47.520;19.186;2023-05-16T08:07:36;12.20;;;8.95;;
49101;SDS011;34913;47.520;19.186;2023-05-16T08:10:01;13.25;;;9.30;;
49101;SDS011;34913;47.520;19.186;2023-05-16T08:12:27;13.23;;;8.60;;
49101;SDS011;34913;47.520;19.186;2023-05-16T08:14:54;10.68;;;7.78;;
49101;SDS011;34913;47.520;19.186;2023-05-16T08:17:20;12.98;;;8.50;;
49101;SDS011;34913;47.520;19.186;2023-05-16T08:19:46;9.77;;;7.38;;
49101;SDS011;34913;47.520;19.186;2023-05-16T08:22:11;10.25;;;7.38;;
49101;SDS011;34913;47.520;19.186;2023-05-16T08:24:37;8.73;;;5.47;;
49101;SDS011;34913;47.520;19.186;2023-05-16T08:27:02;7.45;;;4.85;;
49101;SDS011;34913;47.520;19.186;2023-05-16T08:29:28;6.32;;;4.47;;
49101;SDS011;34913;47.520;19.186;2023-05-16T08:31:54;7.93;;;4.57;;
49101;SDS011;34913;47.520;19.186;2023-05-16T08:34:19;4.78;;;3.92;;
49101;SDS011;34913;47.520;19.186;2023-05-16T08:36:45;4.20;;;3.67;;
49101;SDS011;34913;47.520;19.186;2023-05-16T08:39:10;4.55;;;3.85;;
49101;SDS011;34913;47.520;19.186;2023-05-16T08:41:36;5.60;;;3.78;;
49101;SDS011;34913;47.520;19.186;2023-05-16T08:44:02;4.65;;;3.70;;
49101;SDS011;34913;47.520;19.186;2023-05-16T08:46:28;5.57;;;4.05;;
49101;SDS011;34913;47.520;19.186;2023-05-16T08:48:57;4.97;;;3.92;;
49101;SDS011;34913;47.520;19.186;2023-05-16T08:51:24;5.78;;;3.55;;
49101;SDS011;34913;47.520;19.186;2023-05-16T08:54:02;4.28;;;3.42;;
49101;SDS011;34913;47.520;19.186;2023-05-16T08:56:30;4.00;;;3.05;;
49101;SDS011;34913;47.520;19.186;2023-05-16T08:58:58;6.32;;;3.25;;
49101;SDS011;34913;47.520;19.186;2023-05-16T09:01:26;3.92;;;3.22;;
49101;SDS011;34913;47.520;19.186;2023-05-16T09:03:51;3.33;;;3.00;;
49101;SDS011;34913;47.520;19.186;2023-05-16T09:06:17;3.42;;;3.00;;
49101;SDS011;34913;47.520;19.186;2023-05-16T09:08:43;4.35;;;3.60;;
49101;SDS011;34913;47.520;19.186;2023-05-16T09:11:09;5.22;;;3.60;;
49101;SDS011;34913;47.520;19.186;2023-05-16T09:13:34;3.85;;;3.45;;
49101;SDS011;34913;47.520;19.186;2023-05-16T09:16:11;5.40;;;3.60;;
49101;SDS011;34913;47.520;19.186;2023-05-16T09:18:38;4.90;;;3.90;;
49101;SDS011;34913;47.520;19.186;2023-05-16T09:21:05;4.50;;;3.75;;
49101;SDS011;34913;47.520;19.186;2023-05-16T09:23:32;6.18;;;3.88;;
49101;SDS011;34913;47.520;19.186;2023-05-16T09:25:58;5.82;;;3.72;;
49101;SDS011;34913;47.520;19.186;2023-05-16T09:28:27;5.07;;;4.03;;
49101;SDS011;34913;47.520;19.186;2023-05-16T09:30:52;5.10;;;3.55;;
49101;SDS011;34913;47.520;19.186;2023-05-16T09:33:21;4.75;;;3.75;;
49101;SDS011;34913;47.520;19.186;2023-05-16T09:35:53;4.65;;;4.13;;
49101;SDS011;34913;47.520;19.186;2023-05-16T09:38:23;4.90;;;4.07;;
49101;SDS011;34913;47.520;19.186;2023-05-16T09:40:49;5.57;;;4.47;;
49101;SDS011;34913;47.520;19.186;2023-05-16T09:43:15;5.53;;;4.32;;
49101;SDS011;34913;47.520;19.186;2023-05-16T09:45:44;6.35;;;4.45;;
49101;SDS011;34913;47.520;19.186;2023-05-16T09:48:11;10.63;;;8.00;;
49101;SDS011;34913;47.520;19.186;2023-05-16T09:50:38;6.82;;;4.63;;
49101;SDS011;34913;47.520;19.186;2023-05-16T09:53:04;6.35;;;4.65;;
49101;SDS011;34913;47.520;19.186;2023-05-16T09:55:30;5.30;;;4.80;;
49101;SDS011;34913;47.520;19.186;2023-05-16T09:57:56;6.07;;;5.03;;
49101;SDS011;34913;47.520;19.186;2023-05-16T10:00:22;8.00;;;5.10;;
49101;SDS011;34913;47.520;19.186;2023-05-16T10:02:54;7.35;;;4.88;;
49101;SDS011;34913;47.520;19.186;2023-05-16T10:05:21;9.13;;;7.65;;
49101;SDS011;34913;47.520;19.186;2023-05-16T10:07:48;9.48;;;6.85;;
49101;SDS011;34913;47.520;19.186;2023-05-16T10:10:15;8.27;;;5.55;;
49101;SDS011;34913;47.520;19.186;2023-05-16T10:12:41;5.97;;;5.10;;
49101;SDS011;34913;47.520;19.186;2023-05-16T10:15:08;8.05;;;5.75;;
49101;SDS011;34913;47.520;19.186;2023-05-16T10:17:35;6.88;;;5.38;;
49101;SDS011;34913;47.520;19.186;2023-05-16T10:20:05;8.27;;;6.05;;
49101;SDS011;34913;47.520;19.186;2023-05-16T10:22:35;7.55;;;5.82;;
49101;SDS011;34913;47.520;19.186;2023-05-16T10:25:07;9.17;;;6.37;;
49101;SDS011;34913;47.520;19.186;2023-05-16T10:27:36;13.02;;;7.05;;
49101;SDS011;34913;47.520;19.186;2023-05-16T10:30:03;8.13;;;6.50;;
49101;SDS011;34913;47.520;19.186;2023-05-16T10:32:31;7.90;;;6.25;;
49101;SDS011;34913;47.520;19.186;2023-05-16T10:34:57;8.52;;;5.93;;
49101;SDS011;34913;47.520;19.186;2023-05-16T10:37:26;7.28;;;5.80;;
49101;SDS011;34913;47.520;19.186;2023-05-16T10:39:52;7.80;;;5.55;;
49101;SDS011;34913;47.520;19.186;2023-05-16T10:42:18;8.45;;;5.90;;
49101;SDS011;34913;47.520;19.186;2023-05-16T10:44:44;6.13;;;4.88;;
49101;SDS011;34913;47.520;19.186;2023-05-16T10:47:10;6.63;;;5.43;;
49101;SDS011;34913;47.520;19.186;2023-05-16T10:49:37;5.72;;;4.72;;
49101;SDS011;34913;47.520;19.186;2023-05-16T10:52:06;6.25;;;5.20;;
49101;SDS011;34913;47.520;19.186;2023-05-16T10:54:40;5.57;;;4.70;;
49101;SDS011;34913;47.520;19.186;2023-05-16T10:57:16;6.05;;;5.10;;
49101;SDS011;34913;47.520;19.186;2023-05-16T10:59:45;6.22;;;4.68;;
49101;SDS011;34913;47.520;19.186;2023-05-16T11:04:56;6.43;;;5.00;;
49101;SDS011;34913;47.520;19.186;2023-05-16T11:07:24;6.05;;;4.85;;
49101;SDS011;34913;47.520;19.186;2023-05-16T11:12:36;6.63;;;4.78;;
49101;SDS011;34913;47.520;19.186;2023-05-16T11:18:14;6.63;;;5.55;;
49101;SDS011;34913;47.520;19.186;2023-05-16T11:20:41;8.20;;;5.30;;
49101;SDS011;34913;47.520;19.186;2023-05-16T11:23:17;6.32;;;5.00;;
49101;SDS011;34913;47.520;19.186;2023-05-16T11:25:53;7.32;;;5.32;;
49101;SDS011;34913;47.520;19.186;2023-05-16T11:28:21;9.45;;;6.10;;
49101;SDS011;34913;47.520;19.186;2023-05-16T11:30:49;8.65;;;5.90;;
49101;SDS011;34913;47.520;19.186;2023-05-16T11:33:16;9.63;;;6.10;;
49101;SDS011;34913;47.520;19.186;2023-05-16T11:35:42;6.97;;;6.10;;
49101;SDS011;34913;47.520;19.186;2023-05-16T11:38:12;8.35;;;6.13;;
49101;SDS011;34913;47.520;19.186;2023-05-16T11:40:43;9.60;;;6.88;;
49101;SDS011;34913;47.520;19.186;2023-05-16T11:43:09;9.73;;;6.43;;
49101;SDS011;34913;47.520;19.186;2023-05-16T11:45:35;10.20;;;6.50;;
49101;SDS011;34913;47.520;19.186;2023-05-16T11:48:01;10.10;;;6.47;;
49101;SDS011;34913;47.520;19.186;2023-05-16T11:50:33;7.30;;;5.65;;
49101;SDS011;34913;47.520;19.186;2023-05-16T11:52:59;9.55;;;6.25;;
49101;SDS011;34913;47.520;19.186;2023-05-16T11:55:25;11.27;;;6.43;;
49101;SDS011;34913;47.520;19.186;2023-05-16T11:57:52;8.23;;;6.25;;
49101;SDS011;34913;47.520;19.186;2023-05-16T12:00:22;7.65;;;5.20;;
49101;SDS011;34913;47.520;19.186;2023-05-16T12:02:50;9.90;;;5.20;;
49101;SDS011;34913;47.520;19.186;2023-05-16T12:05:17;7.68;;;5.10;;
49101;SDS011;34913;47.520;19.186;2023-05-16T12:07:44;7.22;;;5.25;;
49101;SDS011;34913;47.520;19.186;2023-05-16T12:10:12;9.27;;;4.95;;
49101;SDS011;34913;47.520;19.186;2023-05-16T12:12:40;6.78;;;5.03;;
49101;SDS011;34913;47.520;19.186;2023-05-16T12:15:07;8.30;;;5.00;;
49101;SDS011;34913;47.520;19.186;2023-05-16T12:17:34;6.30;;;4.38;;
49101;SDS011;34913;47.520;19.186;2023-05-16T12:20:00;5.85;;;5.20;;
49101;SDS011;34913;47.520;19.186;2023-05-16T12:22:30;7.18;;;4.70;;
49101;SDS011;34913;47.520;19.186;2023-05-16T12:24:57;8.80;;;5.10;;
49101;SDS011;34913;47.520;19.186;2023-05-16T12:27:24;9.35;;;4.68;;
49101;SDS011;34913;47.520;19.186;2023-05-16T12:29:51;8.18;;;5.30;;
49101;SDS011;34913;47.520;19.186;2023-05-16T12:32:17;7.22;;;5.03;;
49101;SDS011;34913;47.520;19.186;2023-05-16T12:34:48;8.40;;;5.43;;
49101;SDS011;34913;47.520;19.186;2023-05-16T12:37:15;9.70;;;5.32;;
49101;SDS011;34913;47.520;19.186;2023-05-16T12:39:41;5.78;;;4.85;;
49101;SDS011;34913;47.520;19.186;2023-05-16T12:42:06;10.02;;;7.25;;
49101;SDS011;34913;47.520;19.186;2023-05-16T12:44:33;7.18;;;5.53;;
49101;SDS011;34913;47.520;19.186;2023-05-16T12:47:00;8.95;;;5.70;;
49101;SDS011;34913;47.520;19.186;2023-05-16T12:49:26;7.10;;;5.10;;
49101;SDS011;34913;47.520;19.186;2023-05-16T12:51:52;8.75;;;5.28;;
49101;SDS011;34913;47.520;19.186;2023-05-16T12:54:19;9.25;;;6.05;;
49101;SDS011;34913;47.520;19.186;2023-05-16T12:56:46;12.07;;;5.43;;
49101;SDS011;34913;47.520;19.186;2023-05-16T12:59:13;11.30;;;5.50;;
49101;SDS011;34913;47.520;19.186;2023-05-16T13:01:39;7.20;;;5.68;;
49101;SDS011;34913;47.520;19.186;2023-05-16T13:04:05;10.38;;;5.97;;
49101;SDS011;34913;47.520;19.186;2023-05-16T13:06:30;8.13;;;5.13;;
49101;SDS011;34913;47.520;19.186;2023-05-16T13:08:56;8.35;;;5.15;;
49101;SDS011;34913;47.520;19.186;2023-05-16T13:11:22;7.57;;;5.07;;
49101;SDS011;34913;47.520;19.186;2023-05-16T13:13:48;10.32;;;5.47;;
49101;SDS011;34913;47.520;19.186;2023-05-16T13:16:13;9.25;;;5.10;;
49101;SDS011;34913;47.520;19.186;2023-05-16T13:18:39;8.90;;;5.82;;
49101;SDS011;34913;47.520;19.186;2023-05-16T13:21:04;9.15;;;5.13;;
49101;SDS011;34913;47.520;19.186;2023-05-16T13:23:30;6.85;;;5.00;;
49101;SDS011;34913;47.520;19.186;2023-05-16T13:25:57;7.82;;;5.30;;
49101;SDS011;34913;47.520;19.186;2023-05-16T13:28:23;7.53;;;5.13;;
49101;SDS011;34913;47.520;19.186;2023-05-16T13:30:49;9.45;;;5.60;;
49101;SDS011;34913;47.520;19.186;2023-05-16T13:33:15;6.85;;;5.10;;
49101;SDS011;34913;47.520;19.186;2023-05-16T13:35:41;9.63;;;5.40;;
49101;SDS011;34913;47.520;19.186;2023-05-16T13:38:07;6.63;;;5.43;;
49101;SDS011;34913;47.520;19.186;2023-05-16T13:40:33;7.43;;;5.05;;
49101;SDS011;34913;47.520;19.186;2023-05-16T13:42:59;8.57;;;4.95;;
49101;SDS011;34913;47.520;19.186;2023-05-16T13:45:25;9.55;;;5.25;;
49101;SDS011;34913;47.520;19.186;2023-05-16T13:47:51;8.55;;;5.40;;
49101;SDS011;34913;47.520;19.186;2023-05-16T13:50:16;8.80;;;5.28;;
49101;SDS011;34913;47.520;19.186;2023-05-16T13:52:42;10.07;;;5.68;;
49101;SDS011;34913;47.520;19.186;2023-05-16T13:55:11;10.02;;;5.43;;
49101;SDS011;34913;47.520;19.186;2023-05-16T13:57:37;7.65;;;5.05;;
49101;SDS011;34913;47.520;19.186;2023-05-16T14:00:03;7.78;;;5.07;;
49101;SDS011;34913;47.520;19.186;2023-05-16T14:02:36;7.03;;;4.75;;
49101;SDS011;34913;47.520;19.186;2023-05-16T14:05:02;5.80;;;4.60;;
49101;SDS011;34913;47.520;19.186;2023-05-16T14:07:28;9.85;;;5.13;;
49101;SDS011;34913;47.520;19.186;2023-05-16T14:09:53;9.07;;;5.32;;
49101;SDS011;34913;47.520;19.186;2023-05-16T14:12:18;7.00;;;5.07;;
49101;SDS011;34913;47.520;19.186;2023-05-16T14:14:44;8.32;;;5.38;;
49101;SDS011;34913;47.520;19.186;2023-05-16T14:17:09;11.18;;;5.53;;
49101;SDS011;34913;47.520;19.186;2023-05-16T14:19:35;8.15;;;4.68;;
49101;SDS011;34913;47.520;19.186;2023-05-16T14:22:00;9.32;;;5.50;;
49101;SDS011;34913;47.520;19.186;2023-05-16T14:24:31;9.90;;;5.30;;
49101;SDS011;34913;47.520;19.186;2023-05-16T14:26:57;7.97;;;4.57;;
49101;SDS011;34913;47.520;19.186;2023-05-16T14:29:23;8.77;;;5.25;;
49101;SDS011;34913;47.520;19.186;2023-05-16T14:31:49;7.55;;;5.22;;
49101;SDS011;34913;47.520;19.186;2023-05-16T14:34:14;8.40;;;5.30;;
49101;SDS011;34913;47.520;19.186;2023-05-16T14:36:40;13.15;;;5.90;;
49101;SDS011;34913;47.520;19.186;2023-05-16T14:39:05;10.05;;;5.80;;
49101;SDS011;34913;47.520;19.186;2023-05-16T14:41:32;8.60;;;5.68;;
49101;SDS011;34913;47.520;19.186;2023-05-16T14:43:57;10.00;;;5.85;;
49101;SDS011;34913;47.520;19.186;2023-05-16T14:46:23;9.00;;;5.90;;
49101;SDS011;34913;47.520;19.186;2023-05-16T14:48:48;9.20;;;6.38;;
49101;SDS011;34913;47.520;19.186;2023-05-16T14:51:14;10.82;;;6.20;;
49101;SDS011;34913;47.520;19.186;2023-05-16T14:53:39;9.35;;;6.45;;
49101;SDS011;34913;47.520;19.186;2023-05-16T14:56:05;10.75;;;6.20;;